Colorado City, TX (79512)

11:53 PM CDT on May 25, 2015 (GMT -0500)
Alenco | | Change Station
CLOSE
Current Station
Personal Weather Station
Location: Colorado City, TX
Elevation: 2070 ft
Nearby Weather Stations

Elev 2070 ft 32.38 °N, 100.87 °W | Updated 10 minutes ago

Clear
Clear
61.5 °F
Feels Like 61.5 °F
N
0.0
Wind Variable Wind from South

Today
High -- | Low -- °F
--% Chance of Precip.
Yesterday
High -- | Low -- °F
Precip. -- in
6:39 AM 8:41 PM
First Quarter, 54% visible
Pressure 29.90 in
Visibility 10.0 miles
Clouds Clear
Dew Point 56 °F
Humidity 83%
Rainfall 0.74 in
Snow Depth Not available.
UV 0 out of 12
Pollen 2.40 out of 12
Air Quality Not available.
Flu Activity Sporadic
METAR KSNK 260435Z AUTO 14007KT 10SM CLR 18/14 A2990 RMK AO2 T01810135 TSNO

More Conditions Fewer Conditions

Pressure 29.90 in
Visibility 10.0 miles
Clouds Clear
Dew Point 56 °F
Humidity 83%
Rainfall 0.74 in
Snow Depth Not available.
UV 0 out of 12
Pollen 2.40 out of 12
Air Quality Not available.
Flu Activity Sporadic
METAR KSNK 260435Z AUTO 14007KT 10SM CLR 18/14 A2990 RMK AO2 T01810135 TSNO

More Conditions Fewer Conditions

10-Day Weather Forecast

Almanac

Astronomy

May. 25, 2015 Rise Set
Actual Time
Civil Twilight
Nautical Twilight
Astronomical Twilight
Moon
Length of Visible Light
Length of Day
Tomorrow will be .
, % of the Moon is Illuminated

Today's Extremes

State Highs State Lows

Community

WunderPhotos

Upload Photos

1,824,280 photos uploaded!

WunderBlogs® & News

Nearby

Air Quality

  Air Quality AQ Index Pollutant
Not available.

Snow Depth

Station Depth Elevation

Earthquake Activity

City Distance Mag. Time & Date
Minimum magnitude displayed is 2.5.

Coastal Water Temperatures

Place Temperature

Stations

Nearby Weather Stations

Station Location Temp. Windchill Dew Point Humidity Wind Precip. Elev Updated Type